METAR Data
IDs: Format: Raw Decoded Include TAF

Data at: 2126 UTC 23 Oct 2021

FAPE 232100Z AUTO 26014KT 9999 FEW037/// SCT250/// 15/11 Q1021 NOSIG